createdAt,value
2022-12-24T00:01:22.538Z,5.92
2022-12-24T00:03:50.161Z,5.79
2022-12-24T00:06:18.977Z,5.88
2022-12-24T00:08:46.397Z,5.78
2022-12-24T00:11:13.812Z,5.81
2022-12-24T00:13:41.241Z,5.77
2022-12-24T00:16:08.578Z,5.76
2022-12-24T00:18:41.539Z,5.72
2022-12-24T00:21:12.945Z,5.71
2022-12-24T00:23:40.530Z,5.77
2022-12-24T00:26:08.310Z,5.64
2022-12-24T00:28:36.059Z,5.63
2022-12-24T00:31:12.343Z,5.64
2022-12-24T00:33:40.361Z,5.62
2022-12-24T00:36:08.001Z,5.66
2022-12-24T00:38:35.859Z,5.70
2022-12-24T00:41:03.903Z,5.61
2022-12-24T00:43:31.309Z,5.56
2022-12-24T00:45:59.356Z,5.61
2022-12-24T00:48:27.102Z,5.68
2022-12-24T00:50:54.719Z,5.60
2022-12-24T00:53:22.260Z,5.55
2022-12-24T00:55:49.955Z,5.75
2022-12-24T00:58:17.409Z,5.73
2022-12-24T01:00:44.888Z,5.66
2022-12-24T01:03:12.484Z,5.66
2022-12-24T01:05:39.938Z,5.79
2022-12-24T01:08:07.920Z,5.54
2022-12-24T01:10:35.341Z,5.52
2022-12-24T01:13:03.113Z,5.63
2022-12-24T01:15:30.917Z,5.66
2022-12-24T01:17:59.239Z,5.55
2022-12-24T01:20:31.759Z,5.66
2022-12-24T01:22:59.404Z,5.63
2022-12-24T01:25:26.854Z,5.61
2022-12-24T01:27:54.585Z,5.48
2022-12-24T01:30:22.166Z,5.55
2022-12-24T01:32:49.700Z,5.53
2022-12-24T01:35:17.893Z,5.43
2022-12-24T01:37:45.355Z,5.49
2022-12-24T01:40:33.681Z,5.57
2022-12-24T01:43:19.921Z,5.64
2022-12-24T01:45:51.357Z,5.71
2022-12-24T01:48:23.615Z,5.78
2022-12-24T01:50:51.753Z,5.73
2022-12-24T01:53:19.183Z,5.67
2022-12-24T01:55:46.574Z,5.68
2022-12-24T01:58:14.638Z,5.60
2022-12-24T02:00:41.987Z,5.46
2022-12-24T02:03:09.453Z,5.50
2022-12-24T02:05:39.903Z,5.51
2022-12-24T02:08:07.482Z,5.64
2022-12-24T02:10:35.853Z,5.51
2022-12-24T02:13:03.354Z,5.73
2022-12-24T02:15:33.238Z,5.73
2022-12-24T02:18:19.452Z,5.69
2022-12-24T02:21:06.119Z,5.79
2022-12-24T02:23:52.336Z,5.87
2022-12-24T02:26:34.924Z,5.86
2022-12-24T02:29:21.599Z,5.85
2022-12-24T02:31:52.352Z,5.91
2022-12-24T02:34:23.227Z,5.93
2022-12-24T02:36:54.685Z,5.90
2022-12-24T02:39:27.642Z,5.94
2022-12-24T02:42:07.232Z,5.97
2022-12-24T02:44:42.515Z,5.87
2022-12-24T02:47:10.356Z,5.83
2022-12-24T02:49:37.959Z,5.83
2022-12-24T02:52:05.348Z,5.95
2022-12-24T02:54:33.789Z,6.09
2022-12-24T02:57:06.791Z,6.00
2022-12-24T02:59:53.112Z,6.07
2022-12-24T03:02:36.024Z,6.01
2022-12-24T03:05:07.267Z,5.98
2022-12-24T03:07:37.193Z,5.83
2022-12-24T03:10:13.787Z,5.85
2022-12-24T03:12:42.903Z,5.97
2022-12-24T03:15:11.033Z,5.89
2022-12-24T03:17:38.688Z,6.04
2022-12-24T03:20:06.601Z,5.94
2022-12-24T03:22:34.323Z,6.17
2022-12-24T03:25:01.643Z,5.92
2022-12-24T03:27:29.495Z,5.76
2022-12-24T03:29:56.944Z,5.83
2022-12-24T03:32:25.099Z,5.89
2022-12-24T03:34:52.419Z,5.79
2022-12-24T03:37:19.799Z,5.96
2022-12-24T03:39:47.317Z,6.15
2022-12-24T03:42:14.915Z,5.89
2022-12-24T03:44:42.536Z,5.75
2022-12-24T03:47:09.886Z,5.72
2022-12-24T03:49:37.559Z,5.68
2022-12-24T03:52:05.062Z,5.65
2022-12-24T03:54:32.565Z,5.61
2022-12-24T03:57:00.020Z,5.60
2022-12-24T03:59:28.212Z,5.83
2022-12-24T04:01:56.085Z,5.85
2022-12-24T04:04:23.778Z,5.95
2022-12-24T04:06:51.107Z,6.01
2022-12-24T04:09:19.016Z,6.08
2022-12-24T04:11:46.644Z,6.08
2022-12-24T04:14:14.146Z,6.13
2022-12-24T04:16:41.762Z,6.14
2022-12-24T04:19:09.463Z,6.10
2022-12-24T04:21:36.781Z,5.91
2022-12-24T04:24:04.583Z,5.89
2022-12-24T04:26:32.027Z,5.91
2022-12-24T04:28:59.460Z,5.91
2022-12-24T04:31:26.831Z,5.88
2022-12-24T04:33:54.235Z,5.95
2022-12-24T04:36:23.039Z,5.87
2022-12-24T04:38:50.690Z,6.04
2022-12-24T04:41:23.290Z,6.16
2022-12-24T04:43:52.522Z,6.09
2022-12-24T04:46:36.010Z,6.05
2022-12-24T04:49:03.612Z,5.98
2022-12-24T04:51:32.738Z,5.85
2022-12-24T04:54:00.117Z,5.90
2022-12-24T04:56:29.649Z,6.02
2022-12-24T04:59:00.455Z,5.85
2022-12-24T05:01:29.435Z,5.63
2022-12-24T05:03:56.946Z,5.66
2022-12-24T05:06:25.301Z,5.78
2022-12-24T05:08:56.602Z,5.78
2022-12-24T05:11:24.329Z,5.60
2022-12-24T05:13:53.908Z,5.63
2022-12-24T05:16:21.590Z,5.65
2022-12-24T05:18:49.359Z,5.56
2022-12-24T05:21:17.829Z,5.37
2022-12-24T05:24:04.311Z,5.43
2022-12-24T05:26:32.144Z,5.24
2022-12-24T05:29:00.012Z,5.36
2022-12-24T05:31:29.261Z,5.56
2022-12-24T05:33:57.055Z,5.52
2022-12-24T05:36:24.676Z,5.36
2022-12-24T05:38:52.124Z,5.58
2022-12-24T05:41:19.831Z,5.72
2022-12-24T05:43:47.485Z,5.63
2022-12-24T05:46:15.825Z,5.69
2022-12-24T05:49:09.293Z,5.66
2022-12-24T05:51:37.043Z,5.83
2022-12-24T05:54:05.672Z,5.76
2022-12-24T05:56:33.511Z,5.97
2022-12-24T05:59:01.448Z,5.95
2022-12-24T06:01:29.464Z,5.87
2022-12-24T06:03:57.120Z,5.92
2022-12-24T06:06:26.098Z,5.85
2022-12-24T06:08:53.601Z,5.89
2022-12-24T06:11:22.069Z,5.91
2022-12-24T06:13:50.102Z,5.96
2022-12-24T06:16:18.176Z,5.99
2022-12-24T06:18:46.287Z,6.08
2022-12-24T06:21:14.330Z,6.13
2022-12-24T06:23:42.890Z,5.89
2022-12-24T06:26:11.800Z,5.90
2022-12-24T06:28:39.383Z,5.97
2022-12-24T06:31:07.024Z,5.99
2022-12-24T06:33:35.149Z,6.14
2022-12-24T06:36:02.671Z,6.13
2022-12-24T06:38:30.713Z,6.11
2022-12-24T06:40:58.230Z,6.18
2022-12-24T06:43:25.602Z,6.16
2022-12-24T06:45:53.665Z,6.28
2022-12-24T06:48:22.156Z,6.14
2022-12-24T06:50:50.377Z,6.07
2022-12-24T06:53:17.858Z,6.03
2022-12-24T06:55:45.450Z,6.22
2022-12-24T06:58:13.509Z,6.14
2022-12-24T07:00:41.168Z,6.03
2022-12-24T07:03:08.593Z,6.18
2022-12-24T07:05:36.105Z,5.89
2022-12-24T07:08:03.574Z,6.17
2022-12-24T07:10:30.936Z,6.22
2022-12-24T07:12:59.138Z,6.29
2022-12-24T07:15:26.797Z,6.01
2022-12-24T07:17:54.362Z,6.04
2022-12-24T07:20:22.862Z,6.12
2022-12-24T07:22:50.406Z,5.84
2022-12-24T07:25:17.826Z,6.13
2022-12-24T07:27:45.402Z,6.34
2022-12-24T07:30:13.002Z,6.34
2022-12-24T07:32:40.586Z,6.52
2022-12-24T07:35:08.651Z,6.54
2022-12-24T07:37:36.369Z,6.49
2022-12-24T07:40:08.174Z,6.43
2022-12-24T07:42:35.933Z,6.43
2022-12-24T07:45:03.463Z,6.40
2022-12-24T07:47:31.850Z,6.55
2022-12-24T07:49:59.378Z,6.53
2022-12-24T07:52:27.611Z,6.42
2022-12-24T07:54:54.936Z,6.42
2022-12-24T07:57:24.617Z,6.41
2022-12-24T07:59:52.170Z,6.56
2022-12-24T08:02:19.664Z,6.45
2022-12-24T08:04:49.329Z,6.65
2022-12-24T08:07:16.874Z,6.41
2022-12-24T08:09:46.255Z,6.61
2022-12-24T08:12:13.951Z,6.71
2022-12-24T08:14:42.000Z,6.96
2022-12-24T08:17:09.938Z,6.87
2022-12-24T08:19:37.490Z,7.25
2022-12-24T08:22:04.967Z,7.28
2022-12-24T08:24:32.937Z,7.49
2022-12-24T08:27:00.305Z,7.84
2022-12-24T08:29:28.837Z,7.67
2022-12-24T08:31:56.432Z,7.52
2022-12-24T08:34:24.751Z,7.61
2022-12-24T08:36:52.254Z,7.60
2022-12-24T08:39:19.955Z,7.52
2022-12-24T08:41:47.690Z,7.51
2022-12-24T08:44:15.566Z,7.19
2022-12-24T08:46:44.154Z,7.80
2022-12-24T08:49:11.943Z,7.76
2022-12-24T08:51:39.715Z,8.00
2022-12-24T08:54:07.060Z,8.05
2022-12-24T08:56:34.706Z,8.03
2022-12-24T08:59:02.093Z,8.01
2022-12-24T09:01:29.902Z,8.21
2022-12-24T09:03:57.489Z,8.26
2022-12-24T09:06:24.940Z,7.91
2022-12-24T09:08:52.579Z,7.51
2022-12-24T09:11:20.753Z,7.57
2022-12-24T09:13:48.508Z,7.33
2022-12-24T09:16:16.584Z,7.43
2022-12-24T09:18:45.160Z,7.45
2022-12-24T09:21:17.847Z,7.38
2022-12-24T09:23:45.952Z,7.32
2022-12-24T09:26:17.272Z,7.18
2022-12-24T09:28:45.209Z,7.26
2022-12-24T09:31:12.808Z,7.23
2022-12-24T09:33:40.658Z,7.02
2022-12-24T09:36:08.361Z,7.04
2022-12-24T09:38:36.483Z,7.06
2022-12-24T09:41:32.822Z,7.35
2022-12-24T09:44:01.295Z,7.28
2022-12-24T09:46:31.022Z,7.14
2022-12-24T09:49:03.682Z,7.05
2022-12-24T09:51:51.136Z,7.15
2022-12-24T09:54:25.138Z,7.31
2022-12-24T09:56:52.973Z,7.39
2022-12-24T09:59:21.476Z,7.30
2022-12-24T10:01:49.680Z,6.97
2022-12-24T10:04:18.527Z,6.88
2022-12-24T10:06:52.776Z,6.91
2022-12-24T10:09:23.822Z,6.64
2022-12-24T10:11:56.872Z,6.80
2022-12-24T10:14:47.797Z,6.80
2022-12-24T10:17:18.527Z,6.97
2022-12-24T10:19:46.100Z,6.84
2022-12-24T10:22:22.812Z,6.84
2022-12-24T10:25:16.825Z,7.00
2022-12-24T10:27:45.283Z,7.08
2022-12-24T10:30:19.991Z,7.18
2022-12-24T10:32:50.309Z,6.96
2022-12-24T10:35:24.512Z,7.12
2022-12-24T10:37:57.009Z,7.03
2022-12-24T10:40:28.386Z,7.20
2022-12-24T10:42:58.587Z,7.09
2022-12-24T10:45:26.809Z,7.10
2022-12-24T10:47:56.066Z,7.16
2022-12-24T10:50:30.997Z,7.20
2022-12-24T10:53:00.598Z,7.27
2022-12-24T10:55:29.428Z,7.25
2022-12-24T10:57:59.910Z,7.45
2022-12-24T11:00:35.294Z,7.50
2022-12-24T11:03:22.664Z,7.51
2022-12-24T11:05:59.308Z,7.41
2022-12-24T11:08:27.397Z,7.46
2022-12-24T11:10:56.080Z,7.42
2022-12-24T11:13:37.430Z,7.56
2022-12-24T11:16:12.869Z,7.59
2022-12-24T11:18:52.017Z,7.34
2022-12-24T11:21:21.022Z,7.43
2022-12-24T11:24:07.311Z,7.59
2022-12-24T11:26:37.027Z,7.45
2022-12-24T11:29:13.803Z,7.44
2022-12-24T11:31:42.711Z,7.56
2022-12-24T11:34:22.988Z,7.40
2022-12-24T11:36:51.073Z,7.42
2022-12-24T11:39:19.478Z,7.37
2022-12-24T11:41:52.549Z,7.31
2022-12-24T11:44:24.587Z,7.32
2022-12-24T11:46:56.697Z,7.48
2022-12-24T11:49:24.353Z,7.48
2022-12-24T11:52:10.190Z,7.46
2022-12-24T11:54:48.123Z,7.57
2022-12-24T11:57:15.954Z,7.58
2022-12-24T11:59:44.555Z,7.40
2022-12-24T12:03:03.918Z,7.21
2022-12-24T12:06:31.782Z,7.30
2022-12-24T12:09:00.697Z,7.14
2022-12-24T12:11:28.242Z,7.21
2022-12-24T12:13:57.011Z,7.35
2022-12-24T12:16:27.268Z,7.36
2022-12-24T12:18:58.775Z,7.36
2022-12-24T12:21:29.258Z,7.39
2022-12-24T12:24:00.481Z,7.24
2022-12-24T12:26:28.803Z,7.34
2022-12-24T12:28:58.820Z,7.38
2022-12-24T12:31:27.675Z,7.33
2022-12-24T12:33:56.399Z,7.44
2022-12-24T12:36:32.791Z,7.37
2022-12-24T12:39:00.384Z,7.09
2022-12-24T12:41:32.159Z,7.38
2022-12-24T12:43:59.669Z,7.42
2022-12-24T12:46:46.012Z,7.38
2022-12-24T12:49:16.872Z,7.37
2022-12-24T12:51:55.132Z,7.40
2022-12-24T12:54:25.802Z,7.32
2022-12-24T12:56:55.551Z,7.21
2022-12-24T12:59:29.000Z,7.25
2022-12-24T13:02:06.039Z,7.19
2022-12-24T13:04:34.563Z,7.27
2022-12-24T13:07:14.644Z,7.13
2022-12-24T13:09:51.410Z,7.27
2022-12-24T13:12:31.925Z,7.09
2022-12-24T13:15:23.380Z,7.18
2022-12-24T16:48:59.708Z,6.96
2022-12-24T16:51:28.689Z,6.98
2022-12-24T16:53:57.286Z,6.88
2022-12-24T16:56:25.580Z,6.87
2022-12-24T16:58:53.744Z,6.80
2022-12-24T17:01:21.629Z,6.66
2022-12-24T17:03:51.932Z,6.55
2022-12-24T17:06:19.754Z,6.80
2022-12-24T17:08:49.714Z,6.90
2022-12-24T17:11:18.263Z,6.88
2022-12-24T17:13:46.898Z,6.84
2022-12-24T17:16:16.804Z,6.75
2022-12-24T17:18:45.933Z,6.58
2022-12-24T17:21:16.981Z,6.55
2022-12-24T17:23:44.799Z,6.58
2022-12-24T17:26:15.370Z,6.58
2022-12-24T17:28:47.220Z,6.37
2022-12-24T17:31:22.128Z,6.60
2022-12-24T17:33:51.173Z,6.45
2022-12-24T17:36:19.118Z,6.33
2022-12-24T17:38:49.253Z,6.51
2022-12-24T17:41:20.970Z,6.35
2022-12-24T17:43:52.072Z,6.45
2022-12-24T17:46:54.764Z,6.34
2022-12-24T17:49:30.936Z,6.55
2022-12-24T17:52:04.882Z,6.39
2022-12-24T17:54:40.217Z,6.49
2022-12-24T17:57:07.870Z,6.51
2022-12-24T17:59:40.020Z,6.42
2022-12-24T18:02:29.268Z,6.38
2022-12-24T18:05:04.556Z,6.44
2022-12-24T18:07:32.402Z,6.48
2022-12-24T18:10:00.186Z,6.36
2022-12-24T18:12:27.739Z,6.55
2022-12-24T18:14:55.295Z,6.47
2022-12-24T18:17:41.119Z,6.37
2022-12-24T18:20:09.359Z,6.50
2022-12-24T18:22:37.011Z,6.48
2022-12-24T18:25:04.590Z,6.50
2022-12-24T18:27:34.301Z,6.47
2022-12-24T18:30:01.855Z,6.61
2022-12-24T18:32:29.700Z,6.36
2022-12-24T18:34:58.440Z,6.19
2022-12-24T18:37:26.669Z,6.44
2022-12-24T18:39:54.071Z,6.58
2022-12-24T18:42:22.443Z,6.51
2022-12-24T18:44:50.049Z,6.36
2022-12-24T18:47:17.622Z,6.16
2022-12-24T18:49:45.095Z,6.16
2022-12-24T18:52:16.588Z,6.14
2022-12-24T18:54:50.949Z,6.10
2022-12-24T18:57:20.332Z,6.20
2022-12-24T19:00:03.479Z,6.21
2022-12-24T19:02:34.830Z,5.99
2022-12-24T19:05:03.432Z,6.07
2022-12-24T19:07:34.341Z,6.14
2022-12-24T19:10:02.154Z,6.09
2022-12-24T19:12:30.068Z,6.01
2022-12-24T19:14:57.546Z,6.06
2022-12-24T19:17:25.120Z,5.84
2022-12-24T19:19:56.915Z,5.87
2022-12-24T19:22:26.108Z,5.88
2022-12-24T19:24:54.355Z,5.92
2022-12-24T19:27:21.830Z,5.86
2022-12-24T19:29:49.575Z,5.86
2022-12-24T19:32:18.032Z,5.91
2022-12-24T19:34:46.851Z,5.96
2022-12-24T19:37:14.805Z,5.77
2022-12-24T19:39:43.982Z,5.94
2022-12-24T19:42:12.203Z,5.85
2022-12-24T19:44:41.504Z,5.82
2022-12-24T19:47:09.113Z,5.98
2022-12-24T19:49:37.030Z,5.79
2022-12-24T19:52:08.707Z,5.91
2022-12-24T19:54:39.879Z,5.96
2022-12-24T19:57:07.351Z,5.87
2022-12-24T19:59:37.589Z,5.83
2022-12-24T20:02:06.319Z,5.96
2022-12-24T20:04:34.703Z,5.99
2022-12-24T20:07:08.194Z,5.89
2022-12-24T20:09:37.497Z,6.01
2022-12-24T20:12:05.165Z,6.10
2022-12-24T20:14:33.129Z,6.01
2022-12-24T20:17:08.687Z,5.80
2022-12-24T20:19:37.892Z,6.01
2022-12-24T20:22:06.505Z,6.07
2022-12-24T20:24:37.514Z,6.05
2022-12-24T20:27:08.305Z,5.89
2022-12-24T20:29:38.368Z,5.84
2022-12-24T20:32:07.445Z,5.95
2022-12-24T20:34:38.601Z,5.89
2022-12-24T20:37:09.497Z,6.01
2022-12-24T20:39:37.134Z,5.96
2022-12-24T20:42:06.399Z,6.13
2022-12-24T20:44:36.561Z,5.97
2022-12-24T20:47:04.693Z,6.06
2022-12-24T20:49:35.077Z,6.11
2022-12-24T20:52:03.525Z,5.87
2022-12-24T20:54:34.014Z,6.08
2022-12-24T20:57:04.180Z,5.99
2022-12-24T20:59:34.099Z,6.09
2022-12-24T21:02:02.556Z,6.12
2022-12-24T21:04:31.343Z,6.09
2022-12-24T21:06:58.900Z,5.94
2022-12-24T21:09:26.463Z,6.17
2022-12-24T21:11:54.203Z,6.10
2022-12-24T21:14:23.139Z,5.95
2022-12-24T21:16:50.920Z,6.00
2022-12-24T21:19:19.303Z,6.12
2022-12-24T21:21:47.216Z,5.88
2022-12-24T21:24:15.067Z,6.01
2022-12-24T21:26:42.639Z,5.95
2022-12-24T21:29:10.225Z,5.79
2022-12-24T21:31:39.066Z,5.86
2022-12-24T21:34:06.726Z,6.02
2022-12-24T21:36:34.181Z,5.97
2022-12-24T21:39:02.086Z,6.08
2022-12-24T21:41:30.139Z,5.99
2022-12-24T21:44:00.134Z,5.98
2022-12-24T21:46:27.908Z,5.87
2022-12-24T21:49:14.023Z,5.97
2022-12-24T21:51:43.521Z,6.03
2022-12-24T21:54:26.334Z,6.04
2022-12-24T21:57:13.391Z,6.16
2022-12-24T21:59:41.001Z,5.97
2022-12-24T22:02:13.071Z,5.98
2022-12-24T22:04:41.460Z,6.15
2022-12-24T22:07:35.600Z,5.76
2022-12-24T22:10:21.979Z,6.03
2022-12-24T22:12:52.226Z,6.10
2022-12-24T22:15:19.855Z,5.83
2022-12-24T22:20:50.157Z,6.32
2022-12-24T22:23:20.293Z,5.94
2022-12-24T22:25:53.856Z,6.18
2022-12-24T22:28:34.600Z,6.09
2022-12-24T22:31:07.893Z,6.11
2022-12-24T22:33:37.643Z,6.03
2022-12-24T22:36:09.379Z,6.09
2022-12-24T22:38:48.654Z,6.20
2022-12-24T22:41:26.390Z,6.20
2022-12-24T22:44:22.632Z,6.27
2022-12-24T22:46:50.299Z,6.17
2022-12-24T22:49:17.985Z,6.14
2022-12-24T22:51:45.569Z,6.10
2022-12-24T22:54:13.801Z,6.20
2022-12-24T22:56:44.672Z,6.29
2022-12-24T22:59:15.528Z,6.02
2022-12-24T23:01:44.066Z,5.78
2022-12-24T23:04:12.244Z,6.11
2022-12-24T23:06:40.950Z,6.20
2022-12-24T23:09:09.541Z,5.81
2022-12-24T23:11:37.802Z,5.97
2022-12-24T23:14:24.336Z,5.82
2022-12-24T23:16:51.821Z,5.72
2022-12-24T23:19:19.134Z,5.83
2022-12-24T23:21:46.963Z,5.92
2022-12-24T23:24:14.763Z,6.07
2022-12-24T23:26:42.687Z,6.25
2022-12-24T23:29:10.133Z,6.16
2022-12-24T23:31:37.936Z,6.01
2022-12-24T23:34:06.021Z,6.03
2022-12-24T23:36:34.199Z,5.85
2022-12-24T23:39:01.572Z,5.85
2022-12-24T23:41:32.418Z,6.10
2022-12-24T23:43:59.924Z,6.09
2022-12-24T23:46:27.381Z,5.94
2022-12-24T23:48:55.376Z,6.16
2022-12-24T23:51:23.902Z,6.11
2022-12-24T23:53:52.319Z,6.15
2022-12-24T23:56:19.902Z,6.04
2022-12-24T23:58:47.475Z,6.16
